Friday, October 19, 2018, 2:54 AM EDT
Back to Local

KART, Watertown International Airport

Location: Dexter, NY, United States Lat: 43.983
Local Time: 2:54 AM EDT ( 6:54 GMT) Lon: -76.033
Time Zone: US/Eastern Elev: 324 ft

Show me the last for .
Show Decoded

2018-10-19 01:56 METAR KART 190556Z AUTO 25014G23KT 10SM CLR 08/03 A3019 RMK AO2 SLP224 T00830028
                 10083 20044 56010 =
2018-10-19 00:56 METAR KART 190456Z AUTO 25014G27KT 10SM BKN037 08/02 A3020 RMK AO2 PK WND
                 26027/0447 SLP229 T00830017 400831017 =
2018-10-18 23:56 METAR KART 190356Z AUTO 23016G25KT 10SM FEW030 BKN038 08/02 A3020 RMK AO2 PK WND
                 23028/0334 SLP229 T00830022 =
2018-10-18 22:56 METAR KART 190256Z AUTO 24012KT 10SM OVC036 08/02 A3022 RMK AO2 SLP235 T00780017
                 56025 =
2018-10-18 21:56 METAR KART 190156Z AUTO 24008KT 10SM SCT035 06/02 A3023 RMK AO2 SLP241 T00610017
                 =
2018-10-18 20:56 METAR KART 190056Z AUTO 26011KT 10SM CLR 05/M01 A3026 RMK AO2 SLP252 T00501006 =
2018-10-18 19:56 METAR KART 182356Z AUTO 27016KT 10SM SCT040 05/M02 A3029 RMK AO2 SLP262
                 T00501017 10056 20039 58007 =
2018-10-18 18:56 METAR KART 182256Z AUTO 26012KT 10SM OVC041 04/M02 A3031 RMK AO2 SLP268
                 T00441022 =
2018-10-18 17:56 METAR KART 182156Z AUTO 26012KT 10SM FEW039 04/M03 A3031 RMK AO2 SLP269
                 T00391033 =
2018-10-18 16:56 METAR KART 182056Z AUTO 26009G23KT 10SM BKN042 04/M03 A3031 RMK AO2 SLP269
                 T00441028 56015 =
2018-10-18 15:56 METAR KART 181956Z AUTO 25013G22KT 10SM BKN040 BKN050 05/M03 A3033 RMK AO2
                 SLP274 T00501033 =
2018-10-18 14:56 METAR KART 181856Z AUTO 26015G23KT 10SM FEW049 05/M06 A3033 RMK AO2 SLP276
                 T00501061 =
2018-10-18 13:56 METAR KART 181756Z AUTO 26011G18KT 10SM CLR 05/M06 A3036 RMK AO2 SLP284
                 T00501061 10050 21011 58014 =
2018-10-18 12:56 METAR KART 181656Z AUTO 26010G20KT 10SM CLR 05/M06 A3038 RMK AO2 SLP291
                 T00501061 =
2018-10-18 11:56 METAR KART 181556Z AUTO 27012G17KT 10SM CLR 04/M07 A3039 RMK AO2 SLP296
                 T00391067 =
2018-10-18 10:56 METAR KART 181456Z AUTO 30010KT 10SM CLR 03/M07 A3040 RMK AO2 SLP297 T00281067
                 51007 =
2018-10-18 09:56 METAR KART 181356Z AUTO 31011KT 10SM CLR 02/M07 A3040 RMK AO2 SLP297 T00171067 =
2018-10-18 08:56 METAR KART 181256Z AUTO 30010KT 10SM CLR 01/M06 A3039 RMK AO2 SLP295 T00061061 =
2018-10-18 07:56 METAR KART 181156Z AUTO 30008KT 10SM CLR M01/M06 A3037 RMK AO2 SLP290 T10111061
                 10006 21017 51029 =
2018-10-18 06:56 METAR KART 181056Z AUTO 30009KT 10SM CLR M02/M06 A3035 RMK AO2 SLP281 T10171056
                 =
2018-10-18 05:56 METAR KART 180956Z AUTO 30008KT 10SM CLR M01/M06 A3032 RMK AO2 SLP269 T10111056
                 =
2018-10-18 04:56 METAR KART 180856Z AUTO 31008KT 10SM CLR M01/M06 A3029 RMK AO2 SLP259 T10111056
                 52029 =
2018-10-18 03:56 METAR KART 180756Z AUTO 30009KT 10SM CLR 00/M06 A3026 RMK AO2 SLP250 T00001056 =
2018-10-18 02:56 METAR KART 180656Z AUTO 30009KT 10SM CLR 00/M06 A3022 RMK AO2 SLP238 T00001056 =

Support USWX by starting your Amazon purchase here.